createdAt,value
2017-12-03T00:01:29.149Z,33.40
2017-12-03T00:04:02.204Z,33.35
2017-12-03T00:06:33.315Z,33.40
2017-12-03T00:09:06.898Z,33.42
2017-12-03T00:11:38.367Z,33.46
2017-12-03T00:14:18.894Z,33.37
2017-12-03T00:17:52.709Z,33.39
2017-12-03T00:20:25.958Z,33.46
2017-12-03T00:22:58.166Z,33.45
2017-12-03T00:25:29.820Z,33.39
2017-12-03T00:28:01.910Z,33.38
2017-12-03T00:30:35.959Z,33.45
2017-12-03T00:33:09.789Z,33.42
2017-12-03T00:35:41.454Z,33.46
2017-12-03T00:38:14.138Z,33.42
2017-12-03T00:40:45.849Z,33.46
2017-12-03T00:43:17.624Z,33.49
2017-12-03T00:45:48.788Z,33.48
2017-12-03T00:48:21.068Z,33.43
2017-12-03T00:50:52.265Z,33.48
2017-12-03T00:53:23.522Z,33.42
2017-12-03T00:55:55.006Z,33.46
2017-12-03T00:58:26.244Z,33.50
2017-12-03T01:00:58.177Z,33.39
2017-12-03T01:03:30.755Z,33.35
2017-12-03T01:06:01.910Z,33.28
2017-12-03T01:08:33.407Z,33.19
2017-12-03T01:11:08.823Z,33.20
2017-12-03T01:13:41.136Z,33.23
2017-12-03T01:16:15.765Z,33.30
2017-12-03T01:18:49.029Z,33.33
2017-12-03T01:21:20.592Z,33.29
2017-12-03T01:23:52.536Z,33.31
2017-12-03T01:26:24.886Z,33.35
2017-12-03T01:28:56.263Z,33.40
2017-12-03T01:31:27.884Z,33.34
2017-12-03T01:34:01.071Z,33.25
2017-12-03T01:36:33.151Z,33.25
2017-12-03T01:39:05.201Z,33.31
2017-12-03T01:41:36.649Z,33.30
2017-12-03T01:44:08.503Z,33.30
2017-12-03T01:46:40.003Z,33.28
2017-12-03T01:49:12.010Z,33.30
2017-12-03T01:51:43.525Z,33.37
2017-12-03T01:54:28.041Z,33.38
2017-12-03T01:57:00.044Z,33.41
2017-12-03T02:06:40.047Z,33.38
2017-12-03T02:09:12.881Z,33.36
2017-12-03T02:11:44.274Z,33.43
2017-12-03T02:14:16.113Z,33.48
2017-12-03T02:16:48.273Z,33.51
2017-12-03T02:19:19.680Z,33.50
2017-12-03T02:21:51.179Z,33.43
2017-12-03T02:24:22.744Z,33.44
2017-12-03T02:26:54.180Z,33.46
2017-12-03T02:29:25.845Z,33.47
2017-12-03T02:31:56.936Z,33.32
2017-12-03T02:34:28.398Z,33.37
2017-12-03T02:37:00.871Z,33.32
2017-12-03T02:39:32.682Z,33.40
2017-12-03T02:42:04.020Z,33.47
2017-12-03T02:44:36.037Z,33.46
2017-12-03T02:47:07.386Z,33.48
2017-12-03T02:49:38.590Z,33.43
2017-12-03T02:52:10.090Z,33.36
2017-12-03T02:54:41.674Z,33.40
2017-12-03T02:57:13.998Z,33.40
2017-12-03T02:59:45.515Z,33.33
2017-12-03T03:02:17.011Z,33.31
2017-12-03T03:04:48.323Z,33.37
2017-12-03T03:07:19.503Z,33.43
2017-12-03T03:09:50.491Z,33.55
2017-12-03T03:12:22.448Z,33.58
2017-12-03T03:14:54.057Z,33.59
2017-12-03T03:17:25.320Z,33.58
2017-12-03T03:19:57.563Z,33.55
2017-12-03T03:22:28.684Z,33.44
2017-12-03T03:24:59.983Z,33.43
2017-12-03T03:27:31.321Z,33.42
2017-12-03T03:30:03.019Z,33.41
2017-12-03T03:32:34.200Z,33.37
2017-12-03T03:35:06.002Z,33.39
2017-12-03T03:37:38.116Z,33.41
2017-12-03T03:40:09.191Z,33.51
2017-12-03T03:42:41.432Z,33.58
2017-12-03T03:45:12.590Z,33.59
2017-12-03T03:47:43.842Z,33.52
2017-12-03T03:50:15.591Z,33.50
2017-12-03T03:52:46.906Z,33.55
2017-12-03T03:55:17.997Z,33.56
2017-12-03T03:57:52.143Z,33.60
2017-12-03T04:00:23.787Z,33.56
2017-12-03T04:02:56.200Z,33.61
2017-12-03T04:05:29.096Z,33.62
2017-12-03T04:08:00.304Z,33.64
2017-12-03T04:10:31.705Z,33.63
2017-12-03T04:13:04.744Z,33.65
2017-12-03T04:15:35.856Z,33.57
2017-12-03T04:18:06.949Z,33.57
2017-12-03T04:20:39.040Z,33.51
2017-12-03T04:23:10.064Z,33.40
2017-12-03T04:25:41.203Z,33.43
2017-12-03T04:28:12.596Z,33.40
2017-12-03T04:30:44.240Z,33.35
2017-12-03T04:33:16.208Z,33.35
2017-12-03T04:35:48.380Z,33.37
2017-12-03T04:38:19.580Z,33.39
2017-12-03T04:40:51.003Z,33.40
2017-12-03T04:43:22.300Z,33.46
2017-12-03T04:45:53.959Z,33.42
2017-12-03T04:48:25.255Z,33.43
2017-12-03T04:50:56.547Z,33.36
2017-12-03T04:53:27.759Z,33.33
2017-12-03T04:55:59.332Z,33.44
2017-12-03T04:58:30.776Z,33.45
2017-12-03T05:01:02.191Z,33.48
2017-12-03T05:03:33.677Z,33.46
2017-12-03T05:06:05.040Z,33.48
2017-12-03T05:08:36.926Z,33.41
2017-12-03T05:11:15.840Z,33.23
2017-12-03T05:13:47.424Z,33.09
2017-12-03T05:16:19.132Z,33.15
2017-12-03T05:18:50.756Z,33.21
2017-12-03T05:21:21.936Z,33.20
2017-12-03T05:23:53.437Z,33.25
2017-12-03T05:26:25.039Z,33.18
2017-12-03T05:28:56.332Z,33.33
2017-12-03T05:31:27.595Z,33.52
2017-12-03T05:33:59.021Z,33.80
2017-12-03T05:36:30.538Z,33.86
2017-12-03T05:39:02.699Z,33.77
2017-12-03T05:41:34.252Z,33.72
2017-12-03T05:44:05.614Z,33.58
2017-12-03T05:46:37.454Z,33.45
2017-12-03T05:49:09.373Z,33.32
2017-12-03T05:51:40.680Z,33.34
2017-12-03T05:54:12.036Z,33.37
2017-12-03T05:56:45.092Z,33.43
2017-12-03T05:59:16.477Z,33.47
2017-12-03T06:01:47.792Z,33.40
2017-12-03T06:04:19.471Z,33.37
2017-12-03T06:06:51.143Z,33.42
2017-12-03T06:09:23.296Z,33.49
2017-12-03T06:11:54.446Z,33.32
2017-12-03T06:14:25.938Z,33.25
2017-12-03T06:16:57.958Z,33.20
2017-12-03T06:19:29.499Z,33.14
2017-12-03T06:22:00.920Z,33.10
2017-12-03T06:24:32.589Z,33.17
2017-12-03T06:27:03.755Z,33.16
2017-12-03T06:29:35.965Z,33.17
2017-12-03T06:32:09.324Z,33.12
2017-12-03T06:34:40.720Z,33.13
2017-12-03T06:37:12.962Z,33.02
2017-12-03T06:39:44.981Z,32.90
2017-12-03T06:42:16.148Z,32.94
2017-12-03T06:44:47.696Z,32.89
2017-12-03T06:47:18.880Z,32.95
2017-12-03T06:49:50.549Z,32.98
2017-12-03T06:52:22.563Z,33.01
2017-12-03T06:54:54.041Z,33.04
2017-12-03T06:57:25.354Z,33.09
2017-12-03T06:59:58.998Z,33.01
2017-12-03T07:02:31.184Z,32.91
2017-12-03T07:05:02.587Z,32.88
2017-12-03T07:07:39.510Z,32.90
2017-12-03T07:10:13.648Z,32.80
2017-12-03T07:12:45.017Z,32.86
2017-12-03T07:15:16.608Z,32.86
2017-12-03T07:17:47.966Z,32.98
2017-12-03T07:20:19.711Z,32.95
2017-12-03T07:22:51.479Z,32.88
2017-12-03T07:25:23.370Z,32.84
2017-12-03T07:27:54.940Z,32.74
2017-12-03T07:30:28.988Z,32.76
2017-12-03T07:33:00.212Z,32.64
2017-12-03T07:35:31.999Z,32.61
2017-12-03T07:38:03.453Z,32.67
2017-12-03T07:40:35.291Z,32.79
2017-12-03T07:43:07.893Z,32.85
2017-12-03T07:45:40.460Z,32.84
2017-12-03T07:48:14.147Z,32.85
2017-12-03T07:50:45.674Z,32.82
2017-12-03T07:53:17.235Z,32.97
2017-12-03T07:55:48.719Z,32.97
2017-12-03T07:58:19.920Z,32.89
2017-12-03T08:00:51.782Z,32.84
2017-12-03T08:03:23.366Z,32.62
2017-12-03T08:05:55.301Z,32.61
2017-12-03T08:08:27.809Z,32.62
2017-12-03T08:11:00.627Z,32.59
2017-12-03T08:13:31.939Z,32.70
2017-12-03T08:16:04.218Z,32.74
2017-12-03T08:18:38.578Z,32.67
2017-12-03T08:21:13.317Z,32.69
2017-12-03T08:23:44.772Z,32.80
2017-12-03T08:26:17.742Z,32.90
2017-12-03T08:28:50.004Z,32.86
2017-12-03T08:31:23.391Z,32.84
2017-12-03T08:33:54.547Z,32.78
2017-12-03T08:36:26.096Z,32.89
2017-12-03T08:38:57.746Z,32.92
2017-12-03T08:41:30.784Z,32.94
2017-12-03T08:44:02.346Z,32.96
2017-12-03T08:46:34.140Z,32.84
2017-12-03T08:49:07.256Z,32.85
2017-12-03T08:51:40.846Z,32.90
2017-12-03T08:54:12.603Z,32.84
2017-12-03T08:56:45.984Z,32.79
2017-12-03T08:59:17.782Z,32.83
2017-12-03T09:01:50.143Z,32.78
2017-12-03T09:04:22.243Z,32.70
2017-12-03T09:06:53.740Z,32.67
2017-12-03T09:09:25.503Z,32.63
2017-12-03T09:11:56.913Z,32.61
2017-12-03T09:14:28.503Z,32.56
2017-12-03T09:17:00.409Z,32.68
2017-12-03T09:19:31.693Z,32.61
2017-12-03T09:22:05.010Z,32.62
2017-12-03T09:24:37.628Z,32.62
2017-12-03T09:27:09.804Z,32.59
2017-12-03T09:29:46.498Z,32.61
2017-12-03T09:32:18.614Z,32.61
2017-12-03T09:34:50.198Z,32.65
2017-12-03T09:37:22.977Z,32.68
2017-12-03T09:39:54.919Z,32.65
2017-12-03T09:42:27.681Z,32.71
2017-12-03T09:44:59.492Z,32.61
2017-12-03T09:47:32.013Z,32.66
2017-12-03T09:50:03.466Z,32.66
2017-12-03T09:52:36.048Z,32.73
2017-12-03T09:55:10.596Z,32.73
2017-12-03T09:57:42.931Z,32.68
2017-12-03T10:00:17.299Z,32.67
2017-12-03T10:02:50.617Z,32.67
2017-12-03T10:05:24.528Z,32.72
2017-12-03T10:07:56.154Z,32.78
2017-12-03T10:10:27.527Z,32.82
2017-12-03T10:12:59.739Z,32.81
2017-12-03T10:15:31.276Z,32.87
2017-12-03T10:18:02.744Z,32.81
2017-12-03T10:20:35.457Z,32.83
2017-12-03T10:23:07.059Z,32.81
2017-12-03T10:25:38.718Z,32.63
2017-12-03T10:28:10.101Z,32.52
2017-12-03T10:30:41.781Z,32.38
2017-12-03T10:33:13.717Z,32.29
2017-12-03T10:35:45.690Z,32.25
2017-12-03T10:38:21.569Z,32.21
2017-12-03T10:40:56.170Z,32.24
2017-12-03T10:43:28.610Z,32.15
2017-12-03T10:46:02.365Z,32.08
2017-12-03T10:48:33.954Z,32.14
2017-12-03T10:51:07.459Z,32.19
2017-12-03T10:53:38.893Z,32.22
2017-12-03T10:56:14.275Z,32.14
2017-12-03T10:58:46.222Z,32.14
2017-12-03T11:01:18.287Z,32.14
2017-12-03T11:03:55.868Z,32.21
2017-12-03T11:06:28.839Z,32.25
2017-12-03T11:09:00.136Z,32.21
2017-12-03T11:11:31.640Z,32.21
2017-12-03T11:14:03.857Z,32.21
2017-12-03T11:16:36.293Z,32.23
2017-12-03T11:19:08.015Z,32.16
2017-12-03T11:21:39.440Z,32.10
2017-12-03T11:24:11.364Z,32.01
2017-12-03T11:26:44.035Z,32.00
2017-12-03T11:29:16.341Z,31.94
2017-12-03T11:31:49.607Z,31.94
2017-12-03T11:34:21.428Z,31.88
2017-12-03T11:36:54.863Z,31.97
2017-12-03T11:39:26.714Z,31.86
2017-12-03T11:41:58.934Z,32.01
2017-12-03T11:44:30.808Z,31.92
2017-12-03T11:47:02.889Z,31.96
2017-12-03T11:49:35.446Z,32.06
2017-12-03T11:52:07.393Z,32.03
2017-12-03T11:54:40.240Z,32.02
2017-12-03T11:57:11.738Z,32.02
2017-12-03T11:59:44.725Z,32.09
2017-12-03T12:02:17.236Z,32.15
2017-12-03T12:04:48.877Z,32.04
2017-12-03T12:07:20.199Z,32.01
2017-12-03T12:09:53.116Z,32.13
2017-12-03T12:12:24.417Z,32.21
2017-12-03T12:14:56.155Z,32.37
2017-12-03T12:17:27.622Z,32.40
2017-12-03T12:19:58.910Z,32.45
2017-12-03T12:22:31.074Z,32.41
2017-12-03T12:25:02.408Z,32.46
2017-12-03T12:27:34.107Z,32.58
2017-12-03T12:30:06.340Z,32.65
2017-12-03T12:32:37.976Z,32.58
2017-12-03T12:35:11.851Z,32.68
2017-12-03T12:37:44.269Z,32.73
2017-12-03T12:40:15.788Z,32.69
2017-12-03T12:42:50.351Z,32.63
2017-12-03T12:45:23.248Z,32.60
2017-12-03T12:47:55.059Z,32.61
2017-12-03T12:50:27.777Z,32.61
2017-12-03T12:52:59.228Z,32.57
2017-12-03T12:55:30.975Z,32.57
2017-12-03T12:58:02.913Z,32.64
2017-12-03T13:00:35.003Z,32.70
2017-12-03T13:03:06.549Z,32.71
2017-12-03T13:05:38.859Z,32.73
2017-12-03T13:08:10.554Z,32.78
2017-12-03T13:10:42.824Z,32.79
2017-12-03T13:13:14.496Z,32.78
2017-12-03T13:15:47.649Z,32.80
2017-12-03T13:18:19.886Z,32.86
2017-12-03T13:20:51.309Z,32.89
2017-12-03T13:23:23.815Z,32.88
2017-12-03T13:25:56.124Z,32.88
2017-12-03T13:28:29.274Z,32.87
2017-12-03T13:31:01.047Z,32.90
2017-12-03T13:33:32.787Z,32.88
2017-12-03T13:36:04.517Z,32.95
2017-12-03T13:38:37.289Z,32.92
2017-12-03T13:41:09.462Z,32.91
2017-12-03T13:43:42.496Z,32.99
2017-12-03T13:46:14.737Z,32.99
2017-12-03T13:48:47.089Z,32.95
2017-12-03T13:51:19.538Z,32.98
2017-12-03T13:53:51.362Z,32.97
2017-12-03T13:56:23.746Z,32.95
2017-12-03T13:58:56.508Z,33.03
2017-12-03T14:01:30.578Z,33.09
2017-12-03T14:04:03.079Z,33.16
2017-12-03T14:06:35.177Z,33.15
2017-12-03T14:09:09.007Z,33.13
2017-12-03T14:11:42.022Z,33.15
2017-12-03T14:14:13.878Z,33.23
2017-12-03T14:16:45.858Z,33.33
2017-12-03T14:19:19.085Z,33.34
2017-12-03T14:21:51.135Z,33.37
2017-12-03T14:24:23.104Z,33.36
2017-12-03T14:26:55.165Z,33.46
2017-12-03T14:29:28.541Z,33.48
2017-12-03T14:32:07.045Z,33.64
2017-12-03T14:34:40.708Z,33.64
2017-12-03T14:37:13.880Z,33.58
2017-12-03T14:39:47.059Z,33.54
2017-12-03T14:42:19.016Z,33.64
2017-12-03T14:44:50.907Z,33.74
2017-12-03T14:47:24.657Z,33.76
2017-12-03T14:49:57.038Z,33.76
2017-12-03T14:52:28.739Z,33.79
2017-12-03T14:55:01.303Z,33.78
2017-12-03T14:57:35.409Z,33.81
2017-12-03T15:00:09.542Z,33.79
2017-12-03T15:02:46.771Z,33.71
2017-12-03T15:05:19.149Z,33.56
2017-12-03T15:07:50.590Z,33.60
2017-12-03T15:10:26.264Z,33.54
2017-12-03T15:12:58.895Z,33.58
2017-12-03T15:15:30.974Z,33.60
2017-12-03T15:18:02.674Z,33.61
2017-12-03T15:20:34.519Z,33.61
2017-12-03T15:23:08.083Z,33.69
2017-12-03T15:25:40.668Z,33.77
2017-12-03T15:28:13.900Z,33.77
2017-12-03T15:30:49.760Z,33.92
2017-12-03T15:33:21.549Z,34.05
2017-12-03T15:35:53.298Z,34.06
2017-12-03T15:38:29.748Z,34.07
2017-12-03T15:41:07.054Z,34.15
2017-12-03T15:43:42.433Z,34.23
2017-12-03T15:46:23.272Z,34.26
2017-12-03T15:48:56.631Z,34.32
2017-12-03T15:51:36.845Z,34.35
2017-12-03T15:54:11.132Z,34.35
2017-12-03T15:56:45.682Z,34.40
2017-12-03T15:59:26.499Z,34.41
2017-12-03T16:02:03.528Z,34.40
2017-12-03T16:04:35.840Z,34.41
2017-12-03T16:07:08.289Z,34.41
2017-12-03T16:09:45.803Z,34.41
2017-12-03T16:12:26.527Z,34.43
2017-12-03T16:14:58.100Z,34.45
2017-12-03T16:17:34.118Z,34.50
2017-12-03T16:20:13.112Z,34.50
2017-12-03T16:22:48.717Z,34.43
2017-12-03T16:25:20.763Z,34.43
2017-12-03T16:27:52.744Z,34.39
2017-12-03T16:30:26.773Z,34.44
2017-12-03T16:33:05.521Z,34.47
2017-12-03T16:35:39.465Z,34.45
2017-12-03T16:38:15.607Z,34.50
2017-12-03T16:40:55.989Z,34.49
2017-12-03T16:43:37.213Z,34.51
2017-12-03T16:46:22.519Z,34.48
2017-12-03T16:49:04.179Z,34.56
2017-12-03T16:51:36.247Z,34.56
2017-12-03T16:54:17.995Z,34.56
2017-12-03T16:56:49.559Z,34.57
2017-12-03T16:59:21.997Z,34.58
2017-12-03T17:01:53.986Z,34.57
2017-12-03T17:04:25.739Z,34.59
2017-12-03T17:06:57.962Z,34.65
2017-12-03T17:09:29.625Z,34.61
2017-12-03T17:12:01.275Z,34.54
2017-12-03T17:14:35.241Z,34.45
2017-12-03T17:17:12.256Z,34.45
2017-12-03T17:23:02.569Z,34.40
2017-12-03T17:25:38.217Z,34.46
2017-12-03T17:28:10.073Z,34.48
2017-12-03T17:30:43.696Z,34.57
2017-12-03T17:33:15.845Z,34.63
2017-12-03T17:35:47.158Z,34.67
2017-12-03T17:38:18.360Z,34.64
2017-12-03T17:40:49.528Z,34.63
2017-12-03T17:43:22.792Z,34.62
2017-12-03T17:45:54.289Z,34.61
2017-12-03T17:48:26.780Z,34.62
2017-12-03T17:51:23.915Z,34.64
2017-12-03T17:54:00.678Z,34.64
2017-12-03T17:56:41.916Z,34.61
2017-12-03T17:59:34.981Z,34.57
2017-12-03T18:02:16.512Z,34.55
2017-12-03T18:05:00.029Z,34.61
2017-12-03T18:07:35.182Z,34.56
2017-12-03T18:10:18.533Z,34.56
2017-12-03T18:13:02.229Z,34.57
2017-12-03T18:15:40.004Z,34.58
2017-12-03T18:18:27.288Z,34.60
2017-12-03T18:21:06.866Z,34.52
2017-12-03T18:24:09.627Z,34.47
2017-12-03T18:30:41.167Z,34.50
2017-12-03T18:33:37.505Z,34.40
2017-12-03T18:36:42.805Z,34.35
2017-12-03T18:39:26.173Z,34.20
2017-12-03T18:44:48.259Z,34.32
2017-12-03T18:48:26.300Z,34.35
2017-12-03T18:51:02.939Z,34.39
2017-12-03T18:59:50.039Z,34.36
2017-12-03T19:02:23.414Z,34.36
2017-12-03T19:07:45.040Z,34.35
2017-12-03T19:10:16.834Z,34.38
2017-12-03T19:12:48.700Z,34.42
2017-12-03T19:15:33.130Z,34.42
2017-12-03T19:18:05.848Z,34.44
2017-12-03T19:20:42.887Z,34.39
2017-12-03T19:23:14.633Z,34.38
2017-12-03T19:25:47.866Z,34.34
2017-12-03T19:28:19.268Z,34.38
2017-12-03T19:30:51.060Z,34.34
2017-12-03T19:33:23.352Z,34.27
2017-12-03T19:35:54.576Z,34.29
2017-12-03T19:38:31.636Z,34.29
2017-12-03T19:41:12.217Z,34.30
2017-12-03T19:43:44.213Z,34.25
2017-12-03T19:46:22.779Z,34.19
2017-12-03T19:48:54.501Z,34.16
2017-12-03T19:51:31.001Z,34.13
2017-12-03T19:54:09.516Z,34.11
2017-12-03T19:56:41.874Z,34.09
2017-12-03T19:59:14.456Z,34.06
2017-12-03T20:01:51.935Z,34.07
2017-12-03T20:04:24.357Z,34.12
2017-12-03T20:06:55.883Z,34.16
2017-12-03T20:09:27.363Z,34.17
2017-12-03T20:11:58.917Z,34.16
2017-12-03T20:14:30.315Z,34.13
2017-12-03T20:17:01.649Z,34.11
2017-12-03T20:19:33.462Z,34.11
2017-12-03T20:22:04.803Z,34.18
2017-12-03T20:24:36.631Z,34.16
2017-12-03T20:27:08.687Z,34.21
2017-12-03T20:29:40.125Z,34.18
2017-12-03T20:32:15.581Z,34.14
2017-12-03T20:34:47.376Z,34.10
2017-12-03T20:37:19.556Z,34.04
2017-12-03T20:39:54.827Z,34.08
2017-12-03T20:42:26.827Z,34.10
2017-12-03T20:44:59.868Z,34.13
2017-12-03T20:47:32.171Z,34.14
2017-12-03T20:50:04.965Z,34.16
2017-12-03T20:52:36.228Z,34.08
2017-12-03T20:55:09.241Z,34.09
2017-12-03T20:57:42.230Z,34.08
2017-12-03T21:00:16.813Z,34.09
2017-12-03T21:02:48.793Z,34.01
2017-12-03T21:05:22.065Z,33.97
2017-12-03T21:07:53.691Z,33.94
2017-12-03T21:10:27.362Z,33.93
2017-12-03T21:12:58.815Z,33.92
2017-12-03T21:15:31.212Z,34.02
2017-12-03T21:18:03.888Z,34.02
2017-12-03T21:20:35.132Z,34.00
2017-12-03T21:23:06.465Z,33.92
2017-12-03T21:25:38.499Z,33.80
2017-12-03T21:28:10.018Z,33.81
2017-12-03T21:30:41.392Z,33.82
2017-12-03T21:33:12.754Z,33.91
2017-12-03T21:35:44.246Z,33.94
2017-12-03T21:38:15.918Z,33.96
2017-12-03T21:40:47.501Z,33.85
2017-12-03T21:43:18.791Z,33.83
2017-12-03T21:45:50.540Z,33.89
2017-12-03T21:48:21.772Z,33.92
2017-12-03T21:50:53.585Z,33.99
2017-12-03T21:53:24.642Z,33.99
2017-12-03T21:55:55.806Z,34.01
2017-12-03T21:58:27.279Z,33.99
2017-12-03T22:00:58.613Z,34.02
2017-12-03T22:03:29.775Z,34.06
2017-12-03T22:06:01.405Z,34.03
2017-12-03T22:08:32.569Z,34.05
2017-12-03T22:11:03.584Z,33.95
2017-12-03T22:13:35.157Z,33.94
2017-12-03T22:16:06.450Z,33.88
2017-12-03T22:18:37.484Z,33.82
2017-12-03T22:21:09.974Z,33.83
2017-12-03T22:23:40.952Z,33.99
2017-12-03T22:26:12.310Z,33.99
2017-12-03T22:28:43.686Z,33.89
2017-12-03T22:31:14.621Z,33.88
2017-12-03T22:33:45.905Z,33.82
2017-12-03T22:36:17.661Z,33.83
2017-12-03T22:38:48.710Z,33.87
2017-12-03T22:41:20.023Z,33.90
2017-12-03T22:43:52.007Z,33.90
2017-12-03T22:46:23.882Z,33.92
2017-12-03T22:48:56.078Z,33.85
2017-12-03T22:51:29.217Z,33.80
2017-12-03T22:54:00.523Z,33.81
2017-12-03T22:56:32.799Z,33.86
2017-12-03T22:59:03.956Z,33.88
2017-12-03T23:01:35.392Z,33.96
2017-12-03T23:04:06.824Z,33.96
2017-12-03T23:06:38.120Z,33.90
2017-12-03T23:09:09.221Z,33.89
2017-12-03T23:11:40.358Z,33.86
2017-12-03T23:14:11.746Z,33.80
2017-12-03T23:16:42.823Z,33.89
2017-12-03T23:19:13.900Z,33.92
2017-12-03T23:21:45.614Z,33.91
2017-12-03T23:24:16.937Z,33.84
2017-12-03T23:26:49.086Z,33.86
2017-12-03T23:29:21.605Z,33.85
2017-12-03T23:31:52.930Z,33.91
2017-12-03T23:34:24.568Z,33.91
2017-12-03T23:36:55.646Z,33.96
2017-12-03T23:39:26.653Z,33.90
2017-12-03T23:41:58.896Z,33.91
2017-12-03T23:44:30.863Z,33.87
2017-12-03T23:47:02.401Z,33.83
2017-12-03T23:49:33.548Z,33.93
2017-12-03T23:52:05.173Z,33.91
2017-12-03T23:54:37.347Z,33.93
2017-12-03T23:57:08.756Z,33.86
2017-12-03T23:59:39.884Z,33.81
